• Join FlightAware (Why Join?)
  • Login
  • US Flag 
08:05PM EST


 

Airport Tracker/Info


-or-


 

Live Flight TrackerFlight Track Log ✈ SWA1707 ✈ 29-Apr-2013 ✈ KMSY - KDAL

Flight Track Log - Related Links

Times and Time Zones

All times are in EDT time to prevent confusion due to time zone crossing. See the SWA1707 flight status page for this flight to view local times or setup timezone preferences in your user account.

Time Position Orientation Groundspeed Altitude Reporting Facility
EDT Latitude Longitude Course Direction KTS MPH feet Rate Location/Type
08:14PM 29.9761 -90.2539 200° South 203 234 400  Level Houston Center
08:14PM 29.9389 -90.2697 200° South 200 230 2,000 2,160 Climbing Houston Center
08:16PM 29.9817 -90.3311 309° West 265 305 4,900 2,609 Climbing Houston Center
08:17PM 30.0525 -90.3592 341° North 266 306 8,000 2,806 Climbing Houston Center
08:18PM 30.0936 -90.4378 301° West 283 326 10,700 2,177 Climbing Houston Center
08:19PM 30.1261 -90.5344 291° West 323 372 12,500 2,032 Climbing Houston Center
08:20PM 30.1825 -90.6272 305° West 361 415 14,900 2,419 Climbing Houston Center
08:21PM 30.2531 -90.7122 314° West 366 421 17,500 2,419 Climbing Houston Center
08:22PM 30.3400 -90.8194 313° West 379 436 19,900 2,177 Climbing Houston Center
08:23PM 30.4144 -90.9100 314° West 387 445 22,000 2,177 Climbing Houston Center
08:24PM 30.4897 -90.9994 314° West 387 445 24,400 2,049 Climbing Houston Center
08:25PM 30.5611 -91.0850 314° West 373 429 26,200 1,610 Climbing Houston Center
08:26PM 30.6347 -91.1719 315° West 378 435 27,700 1,500 Climbing Houston Center
08:27PM 30.6953 -91.2708 305° West 379 436 29,300 1,113 Climbing Houston Center
08:28PM 30.7450 -91.3808 298° West 368 423 30,000 339 Climbing Houston Center
08:29PM 30.7928 -91.4867 298° West 370 426 30,000  Level Houston Center
08:30PM 30.8536 -91.6167 299° West 381 438 30,000  Level Houston Center
08:31PM 30.9039 -91.7247 298° West 381 438 30,000  Level Houston Center
08:32PM 30.9536 -91.8342 298° West 383 441 30,000  Level Houston Center
08:33PM 31.0028 -91.9425 298° West 380 437 30,000 -48 Level Houston Center
08:34PM 31.0550 -92.0589 298° West 378 435 29,900 -48 Descending Houston Center
08:35PM 31.1050 -92.1664 299° West 378 435 29,900 48 Level Houston Center
08:36PM 31.1536 -92.2736 298° West 377 434 30,000  Climbing Houston Center
08:37PM 31.2028 -92.3828 298° West 379 436 29,900 -48 Descending Houston Center
08:38PM 31.2592 -92.5106 297° West 373 429 29,900 49 Level Houston Center
08:39PM 31.3011 -92.6211 294° West 374 430 30,000 49 Climbing Houston Center
08:41PM 31.3444 -92.7331 294° West 378 435 30,000 -48 Level Houston Center
08:42PM 31.3856 -92.8428 294° West 372 428 29,900 -48 Descending Houston Center
08:43PM 31.4267 -92.9525 294° West 370 426 29,900  Level Houston Center
08:44PM 31.4686 -93.0617 294° West 369 425 29,900 48 Level Houston Center
08:45PM 31.5172 -93.1939 293° West 370 426 30,000 48 Climbing Houston Center
08:46PM 31.5608 -93.3103 294° West 372 428 30,000  Level Houston Center
08:47PM 31.6031 -93.4231 294° West 377 434 30,000  Level Houston Center
08:48PM 31.6356 -93.5217 291° West 387 445 30,000  Level Fort Worth Center
08:49PM 31.6786 -93.6322 295° West 387 445 30,000  Level Fort Worth Center
08:50PM 31.7175 -93.7503 291° West 392 451 30,000  Level Fort Worth Center
08:51PM 31.7625 -93.8633 295° West 387 445 30,000  Level Fort Worth Center
08:52PM 31.8011 -93.9767 292° West 387 445 30,000  Level Fort Worth Center
08:53PM 31.8397 -94.0900 292° West 387 445 30,000  Level Fort Worth Center
08:54PM 31.8761 -94.2039 291° West 381 438 30,000  Level Fort Worth Center
08:55PM 31.9144 -94.3175 292° West 381 438 30,000  Level Fort Worth Center
08:56PM 31.9506 -94.4289 291° West 375 432 30,000  Level Fort Worth Center
08:57PM 31.9886 -94.5403 292° West 375 432 30,000  Level Fort Worth Center
08:58PM 32.0267 -94.6567 291° West 375 432 30,000  Level Fort Worth Center
08:59PM 32.0625 -94.7708 290° West 375 432 30,000  Level Fort Worth Center
09:00PM 32.1003 -94.8850 291° West 375 432 30,000  Level Fort Worth Center
09:01PM 32.1358 -94.9944 291° West 370 426 30,000  Level Fort Worth Center
09:02PM 32.1736 -95.1111 291° West 370 426 30,000  Level Fort Worth Center
09:03PM 32.2111 -95.2256 291° West 370 426 30,000 -850 Level Fort Worth Center
09:04PM 32.2486 -95.3450 290° West 375 432 28,300 -2,200 Descending Fort Worth Center
09:05PM 32.2861 -95.4647 290° West 380 437 25,600 -2,800 Descending Fort Worth Center
09:06PM 32.3253 -95.5819 292° West 385 443 22,700 -2,800 Descending Fort Worth Center
09:07PM 32.3647 -95.7039 291° West 390 449 20,000 -2,650 Descending Fort Worth Center
09:08PM 32.4039 -95.8289 290° West 395 455 17,400 -2,700 Descending Fort Worth Center
09:09PM 32.4472 -95.9683 290° West 407 468 14,600 -2,500 Descending Fort Worth Center
09:10PM 32.4819 -96.0761 291° West 399 459 12,400 -2,100 Descending Fort Worth Center
09:11PM 32.5228 -96.2011 291° West 384 442 10,400 -1,350 Descending Fort Worth Center
09:12PM 32.5486 -96.2872 290° West 332 382 9,700 -1,050 Descending Fort Worth Center
09:13PM 32.5892 -96.3778 298° West 293 337 8,300 -1,550 Descending Fort Worth Center
09:14PM 32.6292 -96.4489 304° West 287 330 6,600 -1,650 Descending Fort Worth Center
09:15PM 32.6842 -96.5322 308° West 293 337 5,000 -800 Descending Fort Worth Center
09:16PM 32.7367 -96.5933 316° Northwest 293 337 5,000  Level Fort Worth Center
09:17PM 32.7978 -96.6669 315° West 288 331 5,000 -545 Level Fort Worth Center
09:17PM 32.8500 -96.7167 321° Northwest 277 319 4,000 -545 Descending Dallas / Fort Worth TRACON
09:18PM 32.9000 -96.7667 320° Northwest 247 284 4,000 45 Level Dallas / Fort Worth TRACON
09:20PM 32.9500 -96.8333 312° West 232 267 4,100 -550 Climbing Dallas / Fort Worth TRACON
09:20PM 32.9500 -96.8833 270° West 154 177 2,900 -1,333 Descending Dallas / Fort Worth TRACON
09:21PM 32.9000 -96.8833 180° South 134 154 1,700 -1,000 Descending Dallas / Fort Worth TRACON
09:23PM 32.8667 -96.8667 157° South 143 165 800 -818 Descending Dallas / Fort Worth TRACON
09:29PM 32.8471 -96.8518 157° South  Level Estimated